Prochaines Courses

Connexion

VTT

DEFI VERT VTT du 05/10/13 (Reelle 20)
Rang Dossard Nom Prénom Temps Cat Rang Cat Ecart Ecart Cat Club Vitesse Km/h Temps au Km
1 59 BOULOGNE Jeremy CUCHEVAL Matthias 00:38:32 Sénior M 1 00:00:00 00:00:00 0 31,142 01:56
2 2 LEDEZ Rémi FORTIN Léo 00:45:33 Sénior M 2 00:07:01 00:07:01 Cap Opale 26,345 02:17
3 20 LELIEVRE Michel FLIGNY Arnaud 00:45:43 Sénior M 3 00:07:11 00:07:11 Touquettois 26,249 02:17
4 1 KUSCHNICK Philippe DERNONCOURT Mathieu 00:46:47 Vétéran M 1 00:08:15 00:00:00 Cap Opale Julbo 25,650 02:20
5 5 POUTRAIN Kellig AIGOUY Damien 00:50:00 Sénior M 4 00:11:28 00:11:28 Lys AA Tri 1 24,000 02:30
6 3 HANQUEZ Rodrigue BARTHELEMY Christian 00:50:16 Sénior M 5 00:11:44 00:11:44 Cap Opale Véloland 23,873 02:31
7 48 THESSE David THESSE Yann 00:50:19 Sénior M 6 00:11:47 00:11:47 Les Fréres Thesse'Stostérone 23,849 02:31
8 66 DINIELLE Arnaud LANNOY Frédéric 00:50:43 Sénior M 7 00:12:11 00:12:11 Team Mono Sport 1 23,661 02:32
9 27 RICOUART Gérard RENAUX Frédéric 00:50:45 Sénior M 8 00:12:13 00:12:13 Team Ricouart 23,645 02:32
10 73 GYTHIEL Franck LOOTEN Bernard 00:51:11 Vétéran M 2 00:12:39 00:04:24 Manosport Veloland 23,445 02:34
11 78 MASSET Frédéric LOREILLE Thomas 00:51:32 Sénior M 9 00:13:00 00:13:00 Athletico Mojito 23,286 02:35
12 39 DRANSART Adrien THOOR Nycolas 00:53:00 Sénior M 10 00:14:28 00:14:28 Equipe 30 22,642 02:39
13 47 DESCAMPS Pascal REQUERA Hervé 00:53:46 Vétéran M 3 00:15:14 00:06:59 TL 59 22,319 02:41
14 72 JACQUEMOD Mickael CROGIEZ José 00:54:01 Sénior M 11 00:15:29 00:15:29 Manosport Veloland 22,215 02:42
15 23 HIDDEN Thierry DELARACE Jean-Marc 00:54:16 Vétéran M 4 00:15:44 00:07:29 TL59 22,113 02:43
16 7 CANAC Christophe BOCQUET Philippe 00:54:27 Vétéran M 5 00:15:55 00:07:40 Triathlon Club Boulogne 22,039 02:43
17 69 DELEZENNE Pascal RIFFARD Jean 00:54:48 Vétéran M 6 00:16:16 00:08:01 T2 Capathlon 21,898 02:44
18 35 VANHILLE Christophe DEWAELE Michel 00:55:15 Vétéran M 7 00:16:43 00:08:28 Les Compères 21,719 02:46
19 10 FIEVET Pascal MAZURIER Alain 00:55:17 Sénior M 12 00:16:45 00:16:45 Les CANIGOU 21,706 02:46
20 25 LOEUILLEUX Stéphane LOEUILLEUX Pierre 00:55:24 Sénior M 13 00:16:52 00:16:52 Team Family 21,661 02:46
21 29 GEENS Cédric VILLEZ Valentin 00:55:33 Sénior M 14 00:17:01 00:17:01 Mon Beau Père et Moi 21,602 02:47
22 17 WISCART Etienne JOETS Maxence 00:55:43 Cadet M 1 00:17:11 00:00:00 COT Triathlon 1 21,538 02:47
23 44 BRUNOT Yohann BIZ Delphine 00:56:37 Mixte 1 00:18:05 00:00:00 GSO Dunkerque Raid 21,195 02:50
24 8 CARPENTIER Thierry MAZURIER Erir 00:57:18 Vétéran M 8 00:18:46 00:10:31 Sport Evasion 2 Caps 1 20,942 02:52
25 51 HENEMAN Jean-Michel BLANPAIN Jean-Pierre 00:57:24 Vétéran M 9 00:18:52 00:10:37 Gravelines Tri 20,906 02:52
26 70 VIGNAL Mickael VIGNAL Larry 00:57:28 Sénior M 15 00:18:56 00:18:56 VALMO 20,882 02:52
27 61 GRESSIER Pascal LOYER Virginie 00:57:31 Mixte 2 00:18:59 00:00:54 0 20,864 02:53
28 79 LE BEC Michael LEVEL Fabien 00:58:04 Sénior M 16 00:19:32 00:19:32 Les Bof Bof 20,666 02:54
29 45 SERGENT Romuald GRESSIER Olivier 00:58:07 Sénior M 17 00:19:35 00:19:35 Team Trail 62 20,648 02:54
30 76 NEMPON Daniel WALLYN Stéphane 00:58:31 Vétéran M 10 00:19:59 00:11:44 0 20,507 02:56
31 21 FRISCOURT Jérome DEVEYCX Gauthier 00:58:32 Sénior M 18 00:20:00 00:20:00 Matrix Reloaded 20,501 02:56
32 4 QUEVAL Charly CARRE Pauline 00:58:34 Mixte 3 00:20:02 00:01:57 Lille 2 La Tentation 20,489 02:56
33 57 VIGONGNE Geoffrey FOULON Julien 00:58:41 Sénior M 19 00:20:09 00:20:09 Clik Clak Riders 20,449 02:56
34 40 MONTIGNY Dimitri GAVOIS Cyril 00:58:50 Sénior M 20 00:20:18 00:20:18 Sport Evasion 2 Caps 3 20,397 02:57
35 13 ADMONT Stéphane MANTEZ Olivier 00:59:04 Vétéran M 11 00:20:32 00:12:17 AS Marck Athlé 1 20,316 02:57
36 32 FLECHEL Alixe QUEVAL Rémi 00:59:15 Mixte 4 00:20:43 00:02:38 Les Peine à Jouir 20,253 02:58
37 26 BODART Vincent DESMOUST Stéphane 00:59:18 Vétéran M 12 00:20:46 00:12:31 Stade Longuenessois 20,236 02:58
38 52 DUCANOAS Franck CAGANRD Jean-Damien 00:59:24 Sénior M 21 00:20:52 00:20:52 Les Slackers 20,202 02:58
39 15 ARGENTIN Benoit MONCHY Cyprien 00:59:33 Sénior M 22 00:21:01 00:21:01 The First Will Be Last 20,151 02:59
40 43 VAILLANT Thierry LEFEBVRE Grégory 00:59:54 Vétéran M 13 00:21:22 00:13:07 Sang et Or 20,033 03:00
41 33 CAPELLE Jeanne BOYER Yvan 00:59:57 Mixte 5 00:21:25 00:03:20 Mare Monti 20,017 03:00
42 31 EVRARD Claire MASSON Annick 01:00:21 Sénior F 1 00:21:49 00:00:00 Lys AA Tri Women 19,884 03:01
43 62 GOURDIN Eric LEULEU Laeticia 01:00:56 Mixte 6 00:22:24 00:04:19 0 19,694 03:03
44 37 LECRAS Michel BOUDRINGHIN Jean-Marc 01:01:13 Vétéran M 14 00:22:41 00:14:26 Equipe 30 19,603 03:04
45 30 DHERBECOURT Christophe LEBLOND Jean-Pierre 01:01:17 Vétéran M 15 00:22:45 00:14:30 Equipe 30 19,581 03:04
46 68 BERTIN Thomas LAVOYE Loic 01:01:30 Cadet M 2 00:22:58 00:05:47 Les Jeunes du Lys 19,512 03:04
47 71 DEMILLY Mathieu RIVENEZ Mickael 01:02:48 Sénior M 23 00:24:16 00:24:16 T2 Capathlon 19,108 03:08
48 56 COUBET Philippe HENEMAN Christophe 01:02:56 Sénior M 24 00:24:24 00:24:24 Courir à Gravelines 19,068 03:09
49 65 MEATS Antoine ROELS Pascal 01:02:56 Sénior M 25 00:24:24 00:24:24 AS Marck Athlé 2 19,068 03:09
50 6 BABIN Nicolas BABIN Lory 01:03:24 Sénior M 26 00:24:52 00:24:52 Les BABS 18,927 03:10
51 22 ANDRIEUX Dimitri RADET Michèle 01:03:30 Mixte 7 00:24:58 00:06:53 CAP OPALE/LYS Tri 18,898 03:11
52 14 CHARPENTIER Cécile ELZBACH Aurélie 01:03:48 Sénior F 2 00:25:16 00:03:27 Sport Evasion 2 Caps 2 18,809 03:11
53 54 VERPOORT Charlotte RINGOT Stéphanie 01:04:31 Sénior F 3 00:25:59 00:04:10 Les Filles en Rose 18,600 03:14
54 67 BILE Alain LABE Georges 01:04:46 Vétéran M 16 00:26:14 00:17:59 Team 64 18,528 03:14
55 42 BERLY Manuelle ROUTIER Maud 01:04:48 Sénior F 4 00:26:16 00:04:27 Les TriWomen 18,519 03:14
56 28 LECOUSTRE Kévin DEWET Brian 01:05:15 Sénior M 27 00:26:43 00:26:43 Les Guinois 18,391 03:16
57 12 DELAYE Franck DESAGHERE Pierre 01:05:24 Sénior M 28 00:26:52 00:26:52 Les Pois sont Verts 18,349 03:16
58 74 AMAZ Laurent DEPATURE Franck 01:05:54 Sénior M 29 00:27:22 00:27:22 Les Gros Nazes 18,209 03:18
59 36 CODRON Philippe CODRON Séverine 01:05:58 Mixte 8 00:27:26 00:09:21 Equipe 30 18,191 03:18
60 55 LAIDEZ Jonathan KUSCHNICK Fabrice 01:06:01 Sénior M 30 00:27:29 00:27:29 Team Sportanim 18,177 03:18
61 49 JOYEZ Frédéric GROUX Alex 01:07:47 Sénior M 31 00:29:15 00:29:15 Alfred 17,703 03:23
62 9 BODIN Amandine DELARUE Marie 01:07:51 Sénior F 5 00:29:19 00:07:30 Les Revenantes 17,686 03:24
63 46 HURTRELLE Guylain LEFRANCOIS Olivier 01:10:11 Sénior M 32 00:31:39 00:31:39 Equipe 30 17,098 03:31
64 64 COUBELLE Olivier GODART Jérome 01:10:24 Sénior M 33 00:31:52 00:31:52 Les Passe-Pierres 17,045 03:31
65 34 LELIEURE Christelle GREMONT Anne 01:10:53 Sénior F 6 00:32:21 00:10:32 No Stress 16,929 03:33
66 16 BUY Jacques BECQUET Karine 01:12:54 Mixte 9 00:34:22 00:16:17 Les Vieux 16,461 03:39
67 18 WACCRENIER Adrien DE POORTER Sébatien 01:13:06 Sénior M 34 00:34:34 00:34:34 Les Globes Ploteur 16,416 03:39
68 24 DEPLECHIN David GODART Valérie 01:13:12 Mixte 10 00:34:40 00:16:35 Turtle Team 16,393 03:40
69 50 ROUSSEL Charlotte DUREZ-NION Angélique 01:14:40 Sénior F 7 00:36:08 00:14:19 Les Gravelinoises 16,071 03:44
70 63 PLARD Maxime LOGEZ Baptiste 01:14:52 Sénior M 35 00:36:20 00:36:20 0 16,028 03:45
71 19 CAPON BENOIT SINGER Marie 01:19:35 Mixte 11 00:41:03 00:22:58 La Glace 2 Boules 15,079 03:59
72 58 FERAMUS Dimitri FERAMUS Sandrine 01:21:27 Mixte 12 00:42:55 00:24:50 Les Barbares 14,733 04:04
73 11 AUDREZET Guillaume PICQUENDAR Dany 01:30:01 Sénior M 36 00:51:29 00:51:29 FAUT S'FAIRE ZIZIR 13,331 04:30
74 60 DENAN Jeremie DENAN Céline 01:31:11 Mixte 13 00:52:39 00:34:34 La Team Denan 13,160 04:34